Time;durP1;ratioP1;P1;durP2;ratioP2;P2;SDS_P1;SDS_P2;PMS_P1;PMS_P2;Temp;Humidity;BMP_temperature;BMP_pressure;BME280_temperature;BME280_humidity;BME280_pressure;Samples;Min_cycle;Max_cycle;Signal;HPM_P1;HPM_P2
2021/12/08 00:00:46;;;;;;;4.30;3.75;;;;;;;0.00;100.00;98644.96;1785287;80;20984;-74
2021/12/08 00:03:14;;;;;;;4.65;3.17;;;;;;;-0.02;100.00;98646.72;1785759;80;21003;-75
2021/12/08 00:05:43;;;;;;;4.58;3.85;;;;;;;-0.04;100.00;98648.45;1788569;80;21863;-72
2021/12/08 00:08:12;;;;;;;4.20;3.80;;;;;;;-0.03;100.00;98649.30;1788416;80;20949;-72
2021/12/08 00:11:03;;;;;;;3.55;3.25;;;;;;;-0.05;100.00;98651.02;1788423;80;20944;-74
2021/12/08 00:13:08;;;;;;;4.35;3.58;;;;;;;-0.06;100.00;98651.45;1786269;80;21042;-74
2021/12/08 00:15:41;;;;;;;4.28;3.55;;;;;;;-0.04;100.00;98656.11;1788470;80;20983;-74
2021/12/08 00:18:10;;;;;;;4.78;4.25;;;;;;;-0.04;100.00;98652.71;1788857;80;21158;-74
2021/12/08 00:20:38;;;;;;;6.08;3.92;;;;;;;-0.01;100.00;98652.25;1788330;80;20992;-74
2021/12/08 00:23:06;;;;;;;4.08;3.55;;;;;;;0.00;100.00;98654.38;1788594;80;20971;-74
2021/12/08 00:25:34;;;;;;;5.03;3.85;;;;;;;0.01;100.00;98659.87;1788385;80;20948;-73
2021/12/08 00:28:01;;;;;;;4.47;3.50;;;;;;;0.00;100.00;98665.41;1788431;80;20959;-73
2021/12/08 00:30:29;;;;;;;4.40;3.70;;;;;;;0.00;100.00;98673.08;1788575;80;21153;-74
2021/12/08 00:32:57;;;;;;;4.83;3.85;;;;;;;-0.01;100.00;98659.91;1788428;80;20993;-73
2021/12/08 00:35:24;;;;;;;4.00;3.60;;;;;;;-0.02;100.00;98667.17;1788406;80;21046;-73
2021/12/08 00:37:51;;;;;;;5.15;4.35;;;;;;;-0.01;100.00;98656.52;1788455;80;21467;-73
2021/12/08 00:40:18;;;;;;;5.50;4.50;;;;;;;-0.03;100.00;98655.25;1788443;80;21035;-73
2021/12/08 00:42:45;;;;;;;5.42;4.15;;;;;;;-0.04;100.00;98650.16;1788452;80;21164;-73
2021/12/08 00:45:13;;;;;;;5.70;4.50;;;;;;;-0.02;100.00;98661.21;1788651;80;20940;-73
2021/12/08 00:47:39;;;;;;;5.30;4.35;;;;;;;-0.02;100.00;98650.98;1788382;80;20991;-73
2021/12/08 00:50:08;;;;;;;5.12;3.85;;;;;;;-0.04;100.00;98653.98;1788682;80;20982;-73
2021/12/08 00:52:35;;;;;;;6.65;5.05;;;;;;;-0.07;100.00;98646.36;1788563;80;20991;-74
2021/12/08 00:55:07;;;;;;;4.92;4.30;;;;;;;-0.11;100.00;98640.42;1788647;80;21144;-73
2021/12/08 00:57:34;;;;;;;4.90;3.93;;;;;;;-0.11;100.00;98640.42;1788617;80;21022;-73
2021/12/08 01:00:03;;;;;;;3.95;3.55;;;;;;;-0.11;100.00;98643.41;1788717;80;20947;-73
2021/12/08 01:02:30;;;;;;;5.30;3.92;;;;;;;-0.09;100.00;98642.53;1788388;80;21520;-74
2021/12/08 01:04:57;;;;;;;4.92;4.40;;;;;;;-0.07;100.00;98649.76;1786030;80;21003;-73
2021/12/08 01:07:25;;;;;;;5.25;4.65;;;;;;;-0.05;100.00;98653.14;1784757;80;21212;-73
2021/12/08 01:09:52;;;;;;;5.97;4.85;;;;;;;-0.02;100.00;98644.16;1785253;80;21459;-73
2021/12/08 01:12:18;;;;;;;4.03;3.62;;;;;;;-0.01;100.00;98653.95;1785804;79;20968;-73
2021/12/08 01:14:45;;;;;;;4.87;4.20;;;;;;;-0.02;100.00;98667.17;1785349;80;20975;-73
2021/12/08 01:17:14;;;;;;;5.55;4.47;;;;;;;-0.01;100.00;98673.13;1785648;80;20956;-73
2021/12/08 01:19:40;;;;;;;4.60;3.80;;;;;;;0.00;100.00;98669.71;1785296;80;21170;-73
2021/12/08 01:22:06;;;;;;;4.25;3.83;;;;;;;0.00;100.00;98673.08;1785354;80;21055;-74
2021/12/08 01:24:33;;;;;;;5.28;3.83;;;;;;;0.02;100.00;98670.51;1785604;80;21424;-73
2021/12/08 01:26:59;;;;;;;5.72;4.25;;;;;;;0.04;100.00;98663.67;1785781;80;20948;-73
2021/12/08 01:29:26;;;;;;;5.35;4.08;;;;;;;0.07;100.00;98654.69;1785553;80;21003;-73
2021/12/08 01:31:52;;;;;;;4.20;3.60;;;;;;;0.07;100.00;98656.40;1785859;80;21895;-73
2021/12/08 01:34:19;;;;;;;4.50;3.47;;;;;;;0.05;100.00;98654.30;1785362;80;20983;-73
2021/12/08 01:36:45;;;;;;;4.72;3.75;;;;;;;0.02;100.00;98643.66;1785589;80;20959;-73
2021/12/08 01:39:12;;;;;;;5.35;3.70;;;;;;;0.02;100.00;98654.33;1785509;80;20956;-73
2021/12/08 01:41:39;;;;;;;4.92;3.75;;;;;;;0.00;100.00;98639.84;1785755;80;21554;-73
2021/12/08 01:46:54;;;;;;;4.75;4.03;;;;;;;-0.02;100.00;98635.65;1785689;79;20944;-73
2021/12/08 01:49:21;;;;;;;4.58;3.77;;;;;;;0.01;100.00;98624.08;1785894;80;20960;-73
2021/12/08 01:51:48;;;;;;;4.60;3.62;;;;;;;0.03;100.00;98622.35;1785522;80;20991;-73
2021/12/08 01:54:14;;;;;;;4.00;3.47;;;;;;;0.03;100.00;98618.95;1785582;80;21078;-73
2021/12/08 01:56:41;;;;;;;3.72;2.92;;;;;;;-0.02;100.00;98608.38;1785467;80;21131;-74
2021/12/08 01:59:09;;;;;;;4.10;3.70;;;;;;;-0.04;100.00;98614.37;1785394;80;21499;-73
2021/12/08 02:01:39;;;;;;;4.72;3.58;;;;;;;-0.05;100.00;98613.95;1785449;80;21467;-73
2021/12/08 02:04:06;;;;;;;4.30;3.62;;;;;;;-0.04;100.00;98615.64;1778020;80;21105;-73
2021/12/08 02:06:41;;;;;;;4.72;3.50;;;;;;;-0.05;100.00;98617.36;1760108;81;20967;-73
2021/12/08 02:09:10;;;;;;;4.15;3.60;;;;;;;-0.04;100.00;98611.81;1760369;81;21144;-73
2021/12/08 02:11:38;;;;;;;4.05;3.27;;;;;;;-0.07;100.00;98601.19;1760027;81;21566;-73
2021/12/08 02:14:05;;;;;;;4.30;3.42;;;;;;;-0.08;100.00;98607.17;1760009;81;21507;-73
2021/12/08 02:16:32;;;;;;;4.92;3.55;;;;;;;-0.09;100.00;98611.86;1760245;81;20988;-73
2021/12/08 02:18:59;;;;;;;4.17;3.30;;;;;;;-0.08;100.00;98604.61;1760116;81;20996;-73
2021/12/08 02:21:31;;;;;;;3.83;3.22;;;;;;;-0.07;100.00;98597.36;1760036;81;22142;-73
2021/12/08 02:24:00;;;;;;;5.08;4.10;;;;;;;-0.05;100.00;98605.01;1760283;81;20999;-72
2021/12/08 02:26:27;;;;;;;4.28;3.80;;;;;;;-0.04;100.00;98597.75;1760018;80;21047;-72
2021/12/08 02:28:54;;;;;;;4.47;3.50;;;;;;;-0.06;100.00;98588.83;1760281;81;21565;-72
2021/12/08 02:31:32;;;;;;;3.90;3.40;;;;;;;-0.08;100.00;98596.09;1760043;81;20988;-72
2021/12/08 02:50:17;;;;;;;3.10;2.62;;;;;;;-0.11;100.00;98560.34;1759996;81;21003;-72
2021/12/08 02:52:44;;;;;;;3.40;2.87;;;;;;;-0.13;100.00;98565.48;1760013;81;21074;-72
2021/12/08 02:55:10;;;;;;;3.47;2.92;;;;;;;-0.13;100.00;98583.37;1759980;81;20952;-72
2021/12/08 02:57:37;;;;;;;3.40;3.00;;;;;;;-0.12;100.00;98566.33;1759923;80;21507;-73
2021/12/08 03:00:10;;;;;;;3.60;3.25;;;;;;;-0.12;100.00;98563.77;1760231;81;21156;-73
2021/12/08 03:02:36;;;;;;;3.75;3.25;;;;;;;-0.11;100.00;98568.86;1760006;81;20991;-72
2021/12/08 03:05:04;;;;;;;3.45;3.00;;;;;;;-0.09;100.00;98569.69;1760013;80;20951;-72
2021/12/08 03:07:30;;;;;;;3.95;3.42;;;;;;;-0.07;100.00;98558.17;1759981;81;20999;-72
2021/12/08 03:10:08;;;;;;;3.40;2.70;;;;;;;-0.04;100.00;98567.92;1760102;81;21004;-72
2021/12/08 03:12:34;;;;;;;3.83;3.47;;;;;;;-0.02;100.00;98566.20;1759453;81;21137;-72
2021/12/08 03:15:01;;;;;;;3.30;3.00;;;;;;;-0.01;100.00;98578.55;1759980;81;20932;-72
2021/12/08 03:17:27;;;;;;;3.22;2.92;;;;;;;-0.03;100.00;98572.17;1760022;81;21019;-72
2021/12/08 03:19:55;;;;;;;3.22;2.87;;;;;;;-0.02;100.00;98584.09;1759936;80;21490;-72
2021/12/08 03:22:23;;;;;;;4.15;3.62;;;;;;;-0.02;100.00;98587.08;1759997;81;21490;-71
2021/12/08 03:24:51;;;;;;;3.52;3.10;;;;;;;-0.03;100.00;98579.00;1760199;81;21427;-71
2021/12/08 03:27:22;;;;;;;3.17;2.87;;;;;;;-0.02;100.00;98575.58;1760011;80;20940;-72
2021/12/08 03:30:11;;;;;;;3.87;3.10;;;;;;;-0.06;100.00;98575.20;1760044;81;20971;-71
2021/12/08 03:32:34;;;;;;;3.87;3.35;;;;;;;-0.07;100.00;98577.34;1758924;81;21050;-71
2021/12/08 03:34:57;;;;;;;3.67;3.35;;;;;;;-0.08;100.00;98581.61;1759918;81;21499;-71
2021/12/08 03:37:31;;;;;;;3.70;3.12;;;;;;;-0.07;100.00;98574.35;1759932;81;21110;-71
2021/12/08 03:39:59;;;;;;;4.58;4.03;;;;;;;-0.06;100.00;98572.20;1760161;80;21546;-72
2021/12/08 03:42:28;;;;;;;3.70;3.25;;;;;;;-0.04;100.00;98576.03;1760018;81;21027;-71
2021/12/08 03:44:57;;;;;;;4.30;3.90;;;;;;;-0.03;100.00;98571.33;1760234;80;21047;-71
2021/12/08 03:47:29;;;;;;;5.00;3.85;;;;;;;-0.04;100.00;98573.04;1760202;81;20931;-71
2021/12/08 03:49:58;;;;;;;3.75;3.15;;;;;;;-0.06;100.00;98568.37;1760247;80;21187;-71
2021/12/08 03:52:25;;;;;;;4.30;3.90;;;;;;;-0.09;100.00;98567.56;1760097;81;21525;-72
2021/12/08 03:54:51;;;;;;;4.53;3.80;;;;;;;-0.09;100.00;98570.97;1760328;81;20927;-71
2021/12/08 03:57:18;;;;;;;4.15;3.75;;;;;;;-0.07;100.00;98587.56;1759894;81;21035;-71
2021/12/08 03:59:44;;;;;;;5.45;4.25;;;;;;;-0.09;100.00;98592.69;1760224;81;21086;-71
2021/12/08 04:02:11;;;;;;;4.65;3.92;;;;;;;-0.08;100.00;98583.31;1759926;80;21538;-71
2021/12/08 04:04:45;;;;;;;6.08;4.72;;;;;;;-0.08;100.00;98585.88;1766041;80;20940;-71
2021/12/08 04:07:11;;;;;;;5.65;4.22;;;;;;;-0.10;100.00;98590.16;1785054;80;20983;-71
2021/12/08 04:09:40;;;;;;;4.55;3.58;;;;;;;-0.12;100.00;98592.73;1785558;80;20984;-71
2021/12/08 04:12:07;;;;;;;5.30;4.45;;;;;;;-0.10;100.00;98593.55;1785322;80;21490;-71
2021/12/08 04:14:40;;;;;;;5.00;4.03;;;;;;;-0.09;100.00;98600.36;1785343;80;21168;-72
2021/12/08 04:17:12;;;;;;;5.05;4.55;;;;;;;-0.11;100.00;98607.20;1785309;80;21027;-71
2021/12/08 04:19:39;;;;;;;6.12;4.70;;;;;;;-0.09;100.00;98605.91;1785354;80;20975;-71
2021/12/08 04:22:11;;;;;;;4.90;4.08;;;;;;;-0.07;100.00;98611.84;1785381;80;21047;-71
2021/12/08 04:24:40;;;;;;;7.37;5.37;;;;;;;-0.03;100.00;98609.67;1785431;80;21047;-71
2021/12/08 04:27:12;;;;;;;6.40;5.22;;;;;;;0.00;100.00;98614.75;1785689;80;21063;-71
2021/12/08 04:29:40;;;;;;;5.33;4.67;;;;;;;0.02;100.00;98614.70;1785379;80;21479;-72
2021/12/08 04:32:08;;;;;;;5.08;4.55;;;;;;;0.02;100.00;98602.77;1785608;80;20979;-72
2021/12/08 04:34:38;;;;;;;5.47;4.30;;;;;;;0.03;100.00;98603.18;1785326;80;21004;-71
2021/12/08 04:37:18;;;;;;;5.20;4.35;;;;;;;0.03;100.00;98614.68;1785654;80;21569;-71
2021/12/08 04:39:51;;;;;;;5.90;4.70;;;;;;;0.00;100.00;98608.36;1784761;80;21194;-72
2021/12/08 04:42:15;;;;;;;5.60;4.60;;;;;;;-0.01;100.00;98611.34;1784969;80;20928;-71
2021/12/08 04:44:48;;;;;;;6.42;5.28;;;;;;;0.02;100.00;98621.09;1784989;80;21463;-71
2021/12/08 04:50:19;;;;;;;5.35;4.30;;;;;;;0.02;100.00;98627.48;1785391;80;20944;-71
2021/12/08 04:52:48;;;;;;;5.20;4.70;;;;;;;0.00;100.00;98621.95;1783279;80;21151;-71
2021/12/08 05:01:10;;;;;;;4.65;3.83;;;;;;;0.02;100.00;98618.53;1785250;80;20948;-71
2021/12/08 05:07:02;;;;;;;5.37;3.92;;;;;;;-0.03;100.00;98610.52;1767232;80;21091;-71
2021/12/08 05:08:45;;;;;;;4.37;3.65;;;;;;;-0.08;100.00;98608.45;1721210;81;21051;-72
2021/12/08 05:11:04;;;;;;;4.55;3.87;;;;;;;-0.10;100.00;98608.05;1755275;81;21014;-72
2021/12/08 05:13:31;;;;;;;5.22;4.42;;;;;;;-0.12;100.00;98619.56;1759974;80;21455;-71
2021/12/08 05:15:58;;;;;;;4.30;3.70;;;;;;;-0.12;100.00;98608.06;1759975;81;21019;-71
2021/12/08 05:18:32;;;;;;;4.10;3.70;;;;;;;-0.10;100.00;98610.60;1760404;81;21104;-71
2021/12/08 05:21:12;;;;;;;4.37;3.95;;;;;;;-0.09;100.00;98614.85;1759119;81;20999;-71
2021/12/08 05:23:44;;;;;;;4.62;3.50;;;;;;;-0.11;100.00;98602.09;1760001;81;21067;-71
2021/12/08 05:26:17;;;;;;;4.20;3.45;;;;;;;-0.13;100.00;98608.92;1759910;81;20935;-71
2021/12/08 05:28:46;;;;;;;4.47;3.77;;;;;;;-0.14;100.00;98607.23;1760419;81;20987;-72
2021/12/08 05:31:20;;;;;;;4.08;3.67;;;;;;;-0.13;100.00;98615.75;1759936;81;21174;-72
2021/12/08 05:33:47;;;;;;;4.62;3.95;;;;;;;-0.12;100.00;98604.66;1760083;80;20984;-71
2021/12/08 05:36:14;;;;;;;4.10;3.55;;;;;;;-0.12;100.00;98602.11;1759873;80;21109;-71
2021/12/08 05:38:41;;;;;;;3.60;3.25;;;;;;;-0.10;100.00;98607.61;1760222;81;20967;-71
2021/12/08 05:41:12;;;;;;;4.90;4.03;;;;;;;-0.08;100.00;98613.55;1759965;81;21008;-72
2021/12/08 05:43:38;;;;;;;4.47;3.95;;;;;;;-0.05;100.00;98614.80;1759980;81;21064;-71
2021/12/08 05:46:07;;;;;;;4.45;4.03;;;;;;;-0.02;100.00;98599.86;1760092;81;21082;-71
2021/12/08 05:48:35;;;;;;;4.37;3.95;;;;;;;-0.02;100.00;98610.94;1760041;81;20987;-73
2021/12/08 05:51:10;;;;;;;4.15;3.60;;;;;;;-0.03;100.00;98604.56;1760217;81;21388;-71
2021/12/08 05:53:38;;;;;;;4.70;3.62;;;;;;;-0.03;100.00;98602.84;1759668;81;20987;-73
2021/12/08 05:56:06;;;;;;;3.92;3.47;;;;;;;-0.02;100.00;98596.03;1760134;80;21119;-71
2021/12/08 05:58:33;;;;;;;4.10;3.08;;;;;;;-0.01;100.00;98604.11;1743884;81;20943;-73
2021/12/08 06:01:08;;;;;;;3.77;3.33;;;;;;;-0.04;100.00;98601.16;1743815;80;20940;-71
2021/12/08 06:03:35;;;;;;;3.62;3.15;;;;;;;-0.05;100.00;98593.50;1759876;81;21514;-71
2021/12/08 06:06:01;;;;;;;4.65;3.65;;;;;;;-0.06;100.00;98591.37;1759586;80;20956;-71
2021/12/08 06:08:28;;;;;;;4.00;3.60;;;;;;;-0.06;100.00;98589.26;1783160;80;21116;-72
2021/12/08 06:10:57;;;;;;;4.03;3.60;;;;;;;-0.08;100.00;98589.27;1769423;80;21043;-72
2021/12/08 06:13:24;;;;;;;3.17;2.87;;;;;;;-0.06;100.00;98601.61;1759732;80;21410;-70
2021/12/08 06:15:51;;;;;;;3.77;3.37;;;;;;;-0.05;100.00;98594.35;1759568;81;20975;-70
2021/12/08 06:18:21;;;;;;;4.10;3.50;;;;;;;-0.06;100.00;98586.27;1749997;81;21066;-69
2021/12/08 06:20:51;;;;;;;4.72;3.92;;;;;;;-0.07;100.00;98585.86;1751519;80;21704;-70
2021/12/08 06:23:18;;;;;;;9.35;4.70;;;;;;;-0.09;100.00;98596.53;1757067;81;20984;-70
2021/12/08 06:25:46;;;;;;;6.28;3.70;;;;;;;-0.09;100.00;98590.14;1758503;80;21086;-70
2021/12/08 06:28:15;;;;;;;6.08;3.95;;;;;;;-0.07;100.00;98588.41;1759780;80;21169;-69
2021/12/08 06:30:45;;;;;;;4.20;3.27;;;;;;;-0.06;100.00;98596.49;1767193;80;21056;-70
2021/12/08 06:33:14;;;;;;;3.67;3.25;;;;;;;-0.06;100.00;98578.59;1771601;80;21111;-69
2021/12/08 06:35:45;;;;;;;3.67;2.98;;;;;;;-0.06;100.00;98578.59;1749612;81;20956;-69
2021/12/08 06:38:12;;;;;;;4.17;3.50;;;;;;;-0.09;100.00;98573.52;1760203;81;20960;-69
2021/12/08 06:40:59;;;;;;;3.42;3.08;;;;;;;-0.12;100.00;98579.10;1759984;80;21023;-68
2021/12/08 06:43:30;;;;;;;5.65;3.50;;;;;;;-0.13;100.00;98574.42;1755517;80;21014;-70
2021/12/08 06:45:58;;;;;;;4.10;3.50;;;;;;;-0.13;100.00;98573.58;1733386;81;21144;-70
2021/12/08 06:48:33;;;;;;;2.75;2.30;;;;;;;-0.16;100.00;98582.13;1738206;81;21082;-69
2021/12/08 06:51:05;;;;;;;4.55;3.55;;;;;;;-0.17;100.00;98580.44;1745488;81;20964;-69
2021/12/08 06:53:34;;;;;;;5.92;5.15;;;;;;;-0.17;100.00;98591.93;1677237;83;20976;-69
2021/12/08 06:56:24;;;;;;;4.35;3.55;;;;;;;-0.19;100.00;98582.59;1691796;82;21020;-70
2021/12/08 06:58:55;;;;;;;3.47;2.87;;;;;;;-0.18;100.00;98573.63;1706701;83;21156;-72
2021/12/08 07:01:47;;;;;;;3.87;3.22;;;;;;;-0.19;100.00;98579.60;1712231;83;21054;-73
2021/12/08 07:04:31;;;;;;;5.25;4.75;;;;;;;-0.18;100.00;98584.28;1627697;86;21068;-71
2021/12/08 07:07:11;;;;;;;3.33;3.02;;;;;;;-0.19;100.00;98584.72;1629423;86;21517;-72
2021/12/08 07:09:51;;;;;;;4.08;2.85;;;;;;;-0.19;100.00;98582.59;1622484;87;21054;-70
2021/12/08 07:12:30;;;;;;;4.45;2.90;;;;;;;-0.19;100.00;98587.27;1638267;87;21138;-70
2021/12/08 07:15:11;;;;;;;2.77;2.33;;;;;;;-0.21;100.00;98574.97;1629307;88;21148;-70
2021/12/08 07:17:40;;;;;;;3.25;2.30;;;;;;;-0.22;100.00;98576.27;1629649;86;21041;-71
2021/12/08 07:22:44;;;;;;;3.37;2.50;;;;;;;-0.20;100.00;98569.43;1666917;86;21030;-71
2021/12/08 07:25:12;;;;;;;3.47;2.70;;;;;;;-0.21;100.00;98571.14;1666594;86;21194;-71
2021/12/08 07:27:40;;;;;;;2.80;2.25;;;;;;;-0.20;100.00;98571.52;1670490;81;21006;-71
2021/12/08 07:30:12;;;;;;;2.58;2.35;;;;;;;-0.21;100.00;98569.86;1757225;81;21035;-71
2021/12/08 07:32:41;;;;;;;;;;;;;;;-0.20;100.00;98579.19;1780311;80;21578;-72
2021/12/08 07:35:16;;;;;;;2.75;1.90;;;;;;;-0.16;100.00;98592.78;1786236;80;20443;-70
2021/12/08 07:37:44;;;;;;;3.05;2.60;;;;;;;-0.13;100.00;98591.03;1787032;80;21174;-70
2021/12/08 07:40:25;;;;;;;2.55;2.33;;;;;;;-0.11;100.00;98587.19;1758882;80;21003;-71
2021/12/08 07:43:01;;;;;;;2.42;2.22;;;;;;;-0.10;100.00;98585.89;1788499;79;26239;-70
2021/12/08 07:45:35;;;;;;;2.60;2.12;;;;;;;-0.09;100.00;98588.86;1788451;80;20968;-71
2021/12/08 07:48:06;;;;;;;2.75;2.20;;;;;;;-0.09;100.00;98590.14;1788414;80;20999;-71
2021/12/08 07:50:40;;;;;;;2.92;2.55;;;;;;;-0.07;100.00;98588.41;1788198;80;21126;-72
2021/12/08 07:53:08;;;;;;;2.70;2.12;;;;;;;-0.06;100.00;98598.20;1786134;80;21103;-72
2021/12/08 07:55:41;;;;;;;3.45;3.02;;;;;;;-0.06;100.00;98600.77;1788046;80;21027;-71
2021/12/08 07:58:10;;;;;;;2.27;2.08;;;;;;;-0.05;100.00;98602.45;1788084;79;21498;-71
2021/12/08 08:00:42;;;;;;;3.58;3.15;;;;;;;0.01;100.00;98612.58;1788280;80;20981;-71
2021/12/08 08:03:09;;;;;;;3.87;3.58;;;;;;;0.06;100.00;98615.08;1790088;79;21346;-71
2021/12/08 08:05:36;;;;;;;3.02;2.72;;;;;;;0.10;100.00;98617.59;1787710;79;21149;-71
2021/12/08 08:08:08;;;;;;;2.35;2.15;;;;;;;0.12;100.00;98620.97;1789958;79;21889;-75
2021/12/08 08:10:41;;;;;;;3.00;1.95;;;;;;;0.10;100.00;98619.30;1789186;80;21592;-74
2021/12/08 08:13:08;;;;;;;1.85;1.70;;;;;;;0.10;100.00;98615.02;1792485;79;20990;-71
2021/12/08 08:15:43;;;;;;;1.85;1.67;;;;;;;0.11;100.00;98624.82;1791880;79;21146;-72
2021/12/08 08:18:10;;;;;;;2.83;2.62;;;;;;;0.09;100.00;98610.78;1791961;79;21498;-72
2021/12/08 08:20:44;;;;;;;2.37;1.95;;;;;;;0.10;100.00;98620.14;1790990;79;21592;-71
2021/12/08 08:23:11;;;;;;;2.15;1.77;;;;;;;0.12;100.00;98619.69;1788700;80;21550;-74
2021/12/08 08:25:43;;;;;;;3.87;2.02;;;;;;;0.10;100.00;98618.02;1791122;80;21058;-74
2021/12/08 08:28:09;;;;;;;2.45;1.87;;;;;;;0.08;100.00;98610.36;1784828;80;21738;-72
2021/12/08 08:30:44;;;;;;;2.50;2.20;;;;;;;0.10;100.00;98609.06;1788289;79;20991;-73
2021/12/08 08:33:11;;;;;;;3.17;2.00;;;;;;;0.07;100.00;98600.16;1776797;80;20936;-71
2021/12/08 08:35:43;;;;;;;2.70;2.20;;;;;;;0.08;100.00;98587.35;1776610;80;21144;-70
2021/12/08 08:38:15;;;;;;;2.50;2.17;;;;;;;0.09;100.00;98586.48;1779665;79;20935;-69
2021/12/08 08:40:53;;;;;;;2.52;1.90;;;;;;;0.12;100.00;98602.22;1781207;79;21190;-70
2021/12/08 08:43:20;;;;;;;2.35;1.92;;;;;;;0.15;100.00;98600.48;1774622;80;20980;-73
2021/12/08 08:45:55;;;;;;;3.27;2.55;;;;;;;0.20;100.00;98588.45;1781212;80;21062;-72
2021/12/08 08:48:33;;;;;;;4.22;3.10;;;;;;;0.21;100.00;98589.30;1780685;80;20960;-72
2021/12/08 08:51:06;;;;;;;3.37;2.17;;;;;;;0.23;100.00;98591.40;1779902;80;21037;-73
2021/12/08 08:53:35;;;;;;;3.95;3.60;;;;;;;0.24;100.00;98595.65;1780287;80;21138;-70
2021/12/08 08:56:20;;;;;;;4.12;3.58;;;;;;;0.23;100.00;98597.80;1780969;80;38478;-74
2021/12/08 08:58:51;;;;;;;4.92;4.42;;;;;;;0.25;100.00;98605.02;1776669;80;21035;-71
2021/12/08 09:01:28;;;;;;;2.60;2.30;;;;;;;0.23;100.00;98604.19;1764171;80;21013;-71
2021/12/08 09:04:07;;;;;;;3.15;2.80;;;;;;;0.24;100.00;98605.87;1772510;79;21205;-74
2021/12/08 09:06:38;;;;;;;4.00;3.60;;;;;;;0.22;100.00;98600.78;1777991;80;21107;-73
2021/12/08 09:09:09;;;;;;;2.15;1.90;;;;;;;0.24;100.00;98585.42;1788617;79;21547;-74
2021/12/08 09:11:52;;;;;;;2.40;1.98;;;;;;;0.23;100.00;98596.52;1798429;79;20985;-74
2021/12/08 09:14:40;;;;;;;;;;;;;;;0.23;100.00;98583.73;1799713;79;20968;-71
2021/12/08 09:17:19;;;;;;;2.87;2.40;;;;;;;0.20;100.00;98579.50;1777420;79;20177;-71
2021/12/08 09:20:01;;;;;;;3.42;2.60;;;;;;;0.21;100.00;98585.02;1776781;80;20979;-73
2021/12/08 09:22:33;;;;;;;3.15;2.58;;;;;;;0.19;100.00;98571.45;1776243;80;22398;-74
2021/12/08 09:25:08;;;;;;;18.20;9.17;;;;;;;0.19;100.00;98570.60;1777902;80;20948;-72
2021/12/08 09:27:46;;;;;;;4.60;2.77;;;;;;;0.17;100.00;98571.05;1776281;80;21306;-73
2021/12/08 09:30:19;;;;;;;2.80;2.40;;;;;;;0.16;100.00;98570.20;1778147;80;20955;-75
2021/12/08 09:32:53;;;;;;;2.67;2.35;;;;;;;0.16;100.00;98565.09;1776334;80;21082;-73
2021/12/08 09:35:32;;;;;;;4.12;3.17;;;;;;;0.13;100.00;98556.61;1777095;80;21017;-72
2021/12/08 09:38:04;;;;;;;4.45;3.17;;;;;;;0.12;100.00;98558.33;1779692;80;21080;-73
2021/12/08 09:40:37;;;;;;;2.37;2.17;;;;;;;0.13;100.00;98552.34;1780966;79;20983;-72
2021/12/08 09:43:22;;;;;;;2.85;1.87;;;;;;;0.15;100.00;98551.89;1784133;79;21061;-73
2021/12/08 09:45:57;;;;;;;2.83;2.10;;;;;;;0.20;100.00;98560.78;1745551;80;21096;-76
2021/12/08 09:48:27;;;;;;;2.80;2.30;;;;;;;0.21;100.00;98553.06;1738537;82;21014;-76
2021/12/08 09:50:54;;;;;;;2.52;2.08;;;;;;;0.21;100.00;98555.62;1760006;81;21019;-76
2021/12/08 09:53:26;;;;;;;2.93;2.73;;;;;;;0.20;100.00;98555.67;1760895;81;21518;-74
2021/12/08 09:55:54;;;;;;;3.02;2.72;;;;;;;0.21;100.00;98554.77;1734552;82;21034;-74
2021/12/08 09:58:20;;;;;;;4.25;3.40;;;;;;;0.23;100.00;98547.50;1772967;80;21853;-76
2021/12/08 10:00:49;;;;;;;3.40;3.10;;;;;;;0.25;100.00;98546.20;1743751;81;21099;-74
2021/12/08 10:03:16;;;;;;;2.85;2.17;;;;;;;0.30;100.00;98548.26;1716336;83;21167;-75
2021/12/08 10:05:44;;;;;;;2.70;2.50;;;;;;;0.32;100.00;98543.97;1775409;80;21030;-74
2021/12/08 10:08:11;;;;;;;2.40;2.10;;;;;;;0.29;100.00;98547.41;1746493;79;21034;-75
2021/12/08 10:10:41;;;;;;;4.53;2.60;;;;;;;0.30;100.00;98535.47;1789451;78;21845;-76
2021/12/08 10:13:09;;;;;;;3.25;2.00;;;;;;;0.29;100.00;98532.06;1771164;80;21234;-71
2021/12/08 10:15:35;;;;;;;2.98;2.12;;;;;;;0.31;100.00;98535.45;1778529;80;21425;-71
2021/12/08 10:18:04;;;;;;;2.75;1.70;;;;;;;0.30;100.00;98533.76;1783133;79;21031;-72
2021/12/08 10:20:36;;;;;;;2.25;1.95;;;;;;;0.29;100.00;98532.06;1777073;80;21007;-71
2021/12/08 10:23:23;;;;;;;3.40;2.10;;;;;;;0.26;100.00;98532.11;1749987;80;21310;-72
2021/12/08 10:26:05;;;;;;;2.65;1.95;;;;;;;0.24;100.00;98521.48;1740491;80;21093;-72
2021/12/08 10:28:39;;;;;;;;;;;;;;;0.25;100.00;98518.91;1750704;80;21042;-71
2021/12/08 10:31:14;;;;;;;2.27;1.90;;;;;;;0.27;100.00;98522.30;1777033;80;20183;-72
2021/12/08 10:34:09;;;;;;;3.45;2.10;;;;;;;0.24;100.00;98512.53;1779550;80;20936;-72
2021/12/08 10:37:07;;;;;;;2.60;2.00;;;;;;;0.20;100.00;98509.18;1784256;80;21814;-73
2021/12/08 10:39:42;;;;;;;3.15;2.00;;;;;;;0.20;100.00;98510.45;1782685;80;21026;-72
2021/12/08 10:42:26;;;;;;;2.47;2.15;;;;;;;0.22;100.00;98507.87;1755338;80;21034;-73
2021/12/08 10:47:45;;;;;;;2.47;2.12;;;;;;;0.26;100.00;98500.58;1786518;79;20951;-71
2021/12/08 10:56:19;;;;;;;3.58;2.05;;;;;;;0.21;100.00;98500.64;1781702;80;20947;-71
2021/12/08 10:58:49;;;;;;;6.42;2.30;;;;;;;0.21;100.00;98494.68;1785415;80;21038;-72
2021/12/08 11:01:25;;;;;;;3.95;2.08;;;;;;;0.21;100.00;98495.95;1785345;80;21587;-71
2021/12/08 11:04:07;;;;;;;3.30;2.20;;;;;;;0.25;100.00;98511.23;1772348;80;21072;-72
2021/12/08 11:06:36;;;;;;;4.05;2.40;;;;;;;0.28;100.00;98498.84;1769294;79;21114;-73
2021/12/08 11:09:06;;;;;;;2.20;1.87;;;;;;;0.27;100.00;98487.77;1774870;80;21006;-73
2021/12/08 11:11:33;;;;;;;3.62;2.12;;;;;;;0.27;100.00;98489.48;1773769;80;20966;-74
2021/12/08 11:14:03;;;;;;;4.33;2.72;;;;;;;0.26;100.00;98483.52;1781136;80;21589;-73
2021/12/08 11:16:36;;;;;;;3.60;2.50;;;;;;;0.28;100.00;98489.89;1785333;79;20936;-73
2021/12/08 11:19:16;;;;;;;5.10;2.72;;;;;;;0.27;100.00;98485.64;1785469;80;20936;-72
2021/12/08 11:21:54;;;;;;;5.50;2.85;;;;;;;0.27;100.00;98485.21;1782505;79;20946;-73
2021/12/08 11:24:35;;;;;;;3.40;2.70;;;;;;;0.29;100.00;98484.75;1750464;80;20925;-72
2021/12/08 11:27:05;;;;;;;6.03;3.30;;;;;;;0.30;100.00;98480.05;1787137;80;20933;-74
2021/12/08 11:29:35;;;;;;;4.78;2.92;;;;;;;0.31;100.00;98481.73;1788500;80;21047;-74
2021/12/08 11:32:05;;;;;;;4.17;2.70;;;;;;;0.28;100.00;98483.06;1783414;80;20994;-74
2021/12/08 11:34:40;;;;;;;5.53;3.35;;;;;;;0.27;100.00;98478.81;1776331;80;20966;-76
2021/12/08 11:37:15;;;;;;;9.08;4.58;;;;;;;0.24;100.00;98485.69;1778891;79;20977;-71
2021/12/08 11:39:42;;;;;;;5.67;3.35;;;;;;;0.25;100.00;98480.98;1751283;80;21074;-72
2021/12/08 11:42:17;;;;;;;4.55;2.98;;;;;;;0.26;100.00;98483.95;1790984;78;21148;-74
2021/12/08 11:44:48;;;;;;;6.45;4.10;;;;;;;0.28;100.00;98480.94;1812159;78;21015;-74
2021/12/08 11:47:22;;;;;;;4.75;2.55;;;;;;;0.30;100.00;98482.61;1809211;78;21499;-74
2021/12/08 11:49:52;;;;;;;5.92;3.27;;;;;;;0.31;100.00;98476.63;1781230;80;21502;-73
2021/12/08 11:52:23;;;;;;;4.78;3.27;;;;;;;0.29;100.00;98498.82;1781912;79;21547;-74
2021/12/08 11:55:00;;;;;;;7.15;3.58;;;;;;;0.28;100.00;98494.57;1782955;80;21188;-72
2021/12/08 11:57:26;;;;;;;6.85;3.70;;;;;;;0.27;100.00;98488.20;1755087;80;20978;-72
2021/12/08 12:00:19;;;;;;;5.20;3.40;;;;;;;0.25;100.00;98484.39;1755969;80;20933;-71
2021/12/08 12:03:00;;;;;;;;;;;;;;;0.24;100.00;98481.42;1764405;80;21551;-73
2021/12/08 12:05:39;;;;;;;7.33;4.33;;;;;;;0.25;100.00;98477.15;1777541;80;20234;-77
2021/12/08 12:08:10;;;;;;;7.10;3.77;;;;;;;0.27;100.00;98480.53;1731652;82;21129;-75
2021/12/08 12:10:42;;;;;;;6.10;3.98;;;;;;;0.29;100.00;98477.08;1761293;81;20892;-75
2021/12/08 12:13:08;;;;;;;4.80;3.40;;;;;;;0.29;100.00;98478.80;1761197;81;20980;-74
2021/12/08 12:15:38;;;;;;;6.62;4.17;;;;;;;0.28;100.00;98475.39;1765249;80;21058;-76
2021/12/08 12:18:04;;;;;;;9.23;5.72;;;;;;;0.25;100.00;98480.55;1777144;80;21003;-71
2021/12/08 12:20:39;;;;;;;7.08;4.83;;;;;;;0.23;100.00;98488.68;1771201;80;21161;-71
2021/12/08 12:23:45;;;;;;;7.67;4.03;;;;;;;0.22;100.00;98491.26;1752730;80;20984;-73
2021/12/08 12:26:50;;;;;;;6.12;4.67;;;;;;;0.22;100.00;98500.20;1746520;80;20948;-74
2021/12/08 12:29:48;;;;;;;7.55;4.53;;;;;;;0.20;100.00;98487.45;1726184;82;21136;-75